Time;durP1;ratioP1;P1;durP2;ratioP2;P2;SDS_P1;SDS_P2;PMS_P1;PMS_P2;Temp;Humidity;BMP_temperature;BMP_pressure;BME280_temperature;BME280_humidity;BME280_pressure;Samples;Min_cycle;Max_cycle;Signal;HPM_P1;HPM_P2
2023/10/19 00:01:55;;;;;;;20.38;16.65;;;;;;;11.09;100.00;98838.44;5041622;28;20056;-79
2023/10/19 00:04:22;;;;;;;23.08;17.00;;;;;;;11.10;100.00;98845.28;5042616;28;20049;-79
2023/10/19 00:06:48;;;;;;;22.48;16.75;;;;;;;11.11;100.00;98833.81;5042952;28;20499;-78
2023/10/19 00:09:15;;;;;;;23.42;16.98;;;;;;;11.11;100.00;98841.66;5042052;28;20076;-79
2023/10/19 00:11:42;;;;;;;23.02;17.80;;;;;;;11.12;100.00;98838.03;5042482;28;20573;-80
2023/10/19 00:14:15;;;;;;;21.92;17.42;;;;;;;11.19;100.00;98838.84;5042222;28;20119;-79
2023/10/19 00:16:50;;;;;;;24.00;17.67;;;;;;;11.20;100.00;98838.66;5042864;28;20123;-79
2023/10/19 00:19:19;;;;;;;22.35;17.60;;;;;;;11.26;100.00;98839.66;5042017;28;20045;-79
2023/10/19 00:21:51;;;;;;;22.52;16.98;;;;;;;11.33;100.00;98837.81;5042329;28;20084;-80
2023/10/19 00:24:19;;;;;;;24.35;19.02;;;;;;;11.27;100.00;98830.78;5042570;28;20081;-80
2023/10/19 00:26:48;;;;;;;22.48;18.02;;;;;;;11.30;100.00;98825.13;5043643;28;20065;-80
2023/10/19 00:29:30;;;;;;;24.65;19.17;;;;;;;11.30;100.00;98831.19;5041355;28;20045;-79
2023/10/19 00:31:58;;;;;;;22.13;17.37;;;;;;;11.29;100.00;98826.16;5042388;28;20049;-80
2023/10/19 00:34:25;;;;;;;23.20;18.23;;;;;;;11.29;100.00;98826.16;5042209;28;20053;-80
2023/10/19 00:36:51;;;;;;;24.33;19.05;;;;;;;11.34;100.00;98831.59;5044059;28;20049;-80
2023/10/19 00:39:21;;;;;;;22.52;18.35;;;;;;;11.40;100.00;98832.56;5042686;28;20042;-80
2023/10/19 00:41:49;;;;;;;22.60;17.85;;;;;;;11.45;100.00;98827.50;5041492;28;20073;-80
2023/10/19 00:44:22;;;;;;;23.55;18.60;;;;;;;11.46;100.00;98832.53;5043272;28;20053;-80
2023/10/19 00:46:55;;;;;;;21.50;17.90;;;;;;;11.43;100.00;98827.72;5043053;28;20059;-81
2023/10/19 00:49:23;;;;;;;24.75;18.70;;;;;;;11.43;100.00;98840.81;5041890;28;20171;-78
2023/10/19 00:52:02;;;;;;;26.98;18.92;;;;;;;11.36;100.00;98824.28;5040997;28;20121;-78
2023/10/19 00:54:33;;;;;;;22.95;18.58;;;;;;;11.46;100.00;98829.91;5041649;28;20095;-80
2023/10/19 00:57:04;;;;;;;22.52;18.33;;;;;;;11.54;100.00;98824.47;5041504;28;20526;-79
2023/10/19 00:59:35;;;;;;;23.83;18.40;;;;;;;11.51;100.00;98830.09;5033353;28;20073;-78
2023/10/19 01:02:16;;;;;;;24.17;18.33;;;;;;;11.62;100.00;98821.63;5040851;28;20413;-79
2023/10/19 01:04:46;;;;;;;22.67;17.98;;;;;;;11.70;100.00;98823.22;5033982;28;20107;-79
2023/10/19 01:07:21;;;;;;;24.08;18.98;;;;;;;11.72;100.00;98826.44;5040134;28;20055;-79
2023/10/19 01:09:52;;;;;;;23.40;18.55;;;;;;;11.75;100.00;98833.06;5032607;28;20511;-78
2023/10/19 01:12:32;;;;;;;26.08;18.50;;;;;;;11.83;100.00;98843.31;5036875;28;20068;-78
2023/10/19 01:15:07;;;;;;;25.45;18.25;;;;;;;11.82;100.00;98839.91;5040058;28;20092;-80
2023/10/19 01:17:38;;;;;;;26.65;20.25;;;;;;;11.84;100.00;98844.94;5033869;28;20075;-79
2023/10/19 01:20:17;;;;;;;25.70;19.83;;;;;;;11.83;100.00;98838.09;5041031;28;20056;-80
2023/10/19 01:23:10;;;;;;;25.92;19.50;;;;;;;12.00;100.00;98841.06;5132247;22;20325;-80
2023/10/19 01:25:49;;;;;;;27.90;19.88;;;;;;;12.08;100.00;98838.19;5065352;28;20055;-80
2023/10/19 01:28:18;;;;;;;24.92;18.88;;;;;;;11.96;100.00;98832.81;5061225;28;20076;-80
2023/10/19 01:30:46;;;;;;;23.80;19.05;;;;;;;12.01;100.00;98840.03;5060404;28;20474;-78
2023/10/19 01:33:15;;;;;;;25.58;19.48;;;;;;;12.06;100.00;98835.78;5038825;28;20049;-79
2023/10/19 01:38:30;;;;;;;25.45;20.30;;;;;;;11.94;100.00;98826.97;5035465;28;20123;-79
2023/10/19 01:40:59;;;;;;;23.88;19.98;;;;;;;11.95;100.00;98823.31;5034788;28;20488;-79
2023/10/19 01:43:25;;;;;;;26.50;19.27;;;;;;;12.03;100.00;98825.72;5034644;28;20053;-79
2023/10/19 01:45:54;;;;;;;26.35;20.23;;;;;;;12.07;100.00;98824.28;5036398;28;20049;-79
2023/10/19 01:48:22;;;;;;;29.13;19.17;;;;;;;12.04;100.00;98816.84;5034877;28;20478;-78
2023/10/19 01:50:50;;;;;;;25.77;20.13;;;;;;;12.04;100.00;98816.84;5035625;28;20053;-79
2023/10/19 01:53:16;;;;;;;25.70;19.70;;;;;;;12.01;100.00;98816.44;5036222;28;20211;-79
2023/10/19 01:55:47;;;;;;;25.90;20.08;;;;;;;11.99;100.00;98819.28;5035253;28;20045;-80
2023/10/19 01:58:15;;;;;;;25.00;20.38;;;;;;;12.00;100.00;98814.84;5037020;28;20045;-80
2023/10/19 02:00:43;;;;;;;27.20;20.63;;;;;;;12.13;100.00;98815.59;5037927;28;20069;-80
2023/10/19 02:03:09;;;;;;;26.50;20.60;;;;;;;12.05;100.00;98799.28;5037339;28;20512;-78
2023/10/19 02:05:41;;;;;;;28.02;21.55;;;;;;;12.04;100.00;98811.59;5034693;28;20055;-80
2023/10/19 02:08:07;;;;;;;29.90;20.80;;;;;;;12.05;100.00;98815.81;5033748;28;20128;-79
2023/10/19 02:10:40;;;;;;;27.35;21.30;;;;;;;12.00;100.00;98815.66;5035830;28;20118;-80
2023/10/19 02:13:10;;;;;;;26.58;21.00;;;;;;;12.03;100.00;98804.75;5037043;28;20058;-80
2023/10/19 02:15:36;;;;;;;24.92;20.85;;;;;;;12.04;100.00;98808.97;5038548;28;20411;-80
2023/10/19 02:18:03;;;;;;;26.65;21.42;;;;;;;12.05;100.00;98807.97;5037203;28;20136;-80
2023/10/19 02:20:29;;;;;;;28.58;21.83;;;;;;;12.09;100.00;98798.66;5036713;28;20550;-78
2023/10/19 02:22:59;;;;;;;27.17;21.08;;;;;;;12.09;100.00;98790.81;5033171;28;20085;-79
2023/10/19 02:25:36;;;;;;;26.63;20.55;;;;;;;12.15;100.00;98800.44;5034356;28;20127;-79
2023/10/19 02:28:09;;;;;;;30.77;21.77;;;;;;;12.13;100.00;98802.47;5033804;28;20057;-78
2023/10/19 02:30:35;;;;;;;;;;;;;;;12.23;100.00;98804.66;5033890;28;20087;-78
2023/10/19 02:33:11;;;;;;;28.30;20.63;;;;;;;12.19;100.00;98785.91;5033703;28;19967;-80
2023/10/19 02:35:40;;;;;;;26.88;20.73;;;;;;;12.22;100.00;98785.47;5035846;28;20049;-80
2023/10/19 02:40:51;;;;;;;28.92;20.45;;;;;;;12.17;100.00;98779.25;5035283;28;20050;-80
2023/10/19 02:46:20;;;;;;;28.27;19.63;;;;;;;12.15;100.00;98787.34;4978495;28;20058;-80
2023/10/19 02:48:52;;;;;;;27.77;19.15;;;;;;;12.11;100.00;98785.34;5031956;28;20049;-79
2023/10/19 02:51:30;;;;;;;25.92;20.50;;;;;;;12.15;100.00;98797.81;5035573;28;20073;-80
2023/10/19 02:54:16;;;;;;;25.95;20.35;;;;;;;12.15;100.00;98789.16;5034777;28;20514;-80
2023/10/19 02:56:43;;;;;;;27.35;20.98;;;;;;;12.10;100.00;98760.94;5029205;28;20057;-80
2023/10/19 02:59:15;;;;;;;25.58;21.45;;;;;;;11.99;100.00;98766.84;5035439;28;20056;-81
2023/10/19 03:01:45;;;;;;;28.83;21.27;;;;;;;11.89;100.00;98756.81;5034346;28;20049;-79
2023/10/19 03:04:36;;;;;;;27.17;20.60;;;;;;;11.93;100.00;98763.25;5036313;28;20077;-81
2023/10/19 03:07:02;;;;;;;27.63;21.52;;;;;;;11.87;100.00;98753.59;5035450;28;20085;-80
2023/10/19 03:12:46;;;;;;;32.55;22.70;;;;;;;11.88;100.00;98749.16;5023275;28;20053;-81
2023/10/19 03:15:19;;;;;;;33.17;21.70;;;;;;;11.92;100.00;98759.03;5034889;28;20076;-78
2023/10/19 03:17:46;;;;;;;30.83;23.92;;;;;;;11.89;100.00;98758.63;5031179;28;20045;-79
2023/10/19 03:20:12;;;;;;;30.30;22.50;;;;;;;11.89;100.00;98761.25;5033210;28;20059;-79
2023/10/19 03:22:47;;;;;;;27.25;22.95;;;;;;;11.82;100.00;98747.38;5034609;28;20129;-80
2023/10/19 03:28:05;;;;;;;29.85;22.38;;;;;;;11.92;100.00;98761.66;5031204;28;20320;-81
2023/10/19 03:30:38;;;;;;;31.48;21.75;;;;;;;11.85;100.00;98739.09;5035564;28;20327;-81
2023/10/19 03:33:08;;;;;;;;;;;;;;;11.88;100.00;98754.41;5041337;28;20495;-81
2023/10/19 03:35:47;;;;;;;29.45;20.80;;;;;;;11.72;100.00;98724.25;5039189;28;19921;-82
2023/10/19 03:38:17;;;;;;;30.70;21.38;;;;;;;11.88;100.00;98743.94;5037933;28;20053;-83
2023/10/19 03:40:51;;;;;;;30.48;23.10;;;;;;;11.98;100.00;98754.75;5039237;28;20064;-82
2023/10/19 03:43:21;;;;;;;29.92;21.38;;;;;;;11.94;100.00;98751.75;5037616;28;20049;-80
2023/10/19 03:45:52;;;;;;;29.83;22.27;;;;;;;12.02;100.00;98755.94;5030798;28;20072;-80
2023/10/19 03:48:26;;;;;;;30.60;22.25;;;;;;;11.85;100.00;98752.19;5036244;28;20484;-80
2023/10/19 03:50:55;;;;;;;31.73;22.25;;;;;;;11.84;100.00;98753.22;5038513;28;20049;-81
2023/10/19 03:53:22;;;;;;;30.73;22.80;;;;;;;12.00;100.00;98754.56;5037197;28;20049;-80
2023/10/19 03:55:49;;;;;;;30.23;21.63;;;;;;;11.86;100.00;98754.63;5036854;28;20318;-81
2023/10/19 03:58:17;;;;;;;29.67;22.00;;;;;;;12.04;100.00;98755.75;5036514;28;20061;-80
2023/10/19 04:00:44;;;;;;;28.60;21.95;;;;;;;11.96;100.00;98751.53;5035561;28;20055;-80
2023/10/19 04:03:12;;;;;;;31.13;22.95;;;;;;;11.94;100.00;98759.63;5036635;28;20148;-81
2023/10/19 04:05:41;;;;;;;31.02;23.48;;;;;;;11.95;100.00;98749.94;5038090;28;20053;-81
2023/10/19 04:08:12;;;;;;;34.35;22.85;;;;;;;11.88;100.00;98744.72;5038076;28;20053;-81
2023/10/19 04:10:44;;;;;;;30.43;22.40;;;;;;;11.85;100.00;98733.84;5038181;28;20076;-82
2023/10/19 04:13:12;;;;;;;32.28;23.48;;;;;;;11.85;100.00;98733.84;5037777;28;20296;-82
2023/10/19 04:15:39;;;;;;;30.23;22.45;;;;;;;11.84;100.00;98737.50;5040080;28;20049;-82
2023/10/19 04:18:10;;;;;;;33.50;23.73;;;;;;;11.90;100.00;98737.47;5035342;28;20049;-79
2023/10/19 04:20:58;;;;;;;33.35;24.15;;;;;;;11.99;100.00;98734.59;5038441;28;20079;-79
2023/10/19 04:23:34;;;;;;;33.35;24.80;;;;;;;12.00;100.00;98731.75;5038658;28;20115;-79
2023/10/19 04:26:05;;;;;;;34.10;23.38;;;;;;;12.06;100.00;98738.78;5037649;28;20450;-79
2023/10/19 04:28:37;;;;;;;31.80;22.17;;;;;;;12.22;100.00;98735.66;5029138;28;20512;-78
2023/10/19 04:31:06;;;;;;;32.88;23.50;;;;;;;12.09;100.00;98748.06;5037347;28;20363;-80
2023/10/19 04:33:33;;;;;;;30.58;23.73;;;;;;;12.10;100.00;98744.41;5036862;28;20053;-80
2023/10/19 04:36:02;;;;;;;30.98;22.90;;;;;;;12.21;100.00;98748.97;5036767;28;20140;-79
2023/10/19 04:38:30;;;;;;;29.50;23.02;;;;;;;12.33;100.00;98741.22;5036936;28;20119;-79
2023/10/19 04:41:07;;;;;;;30.13;23.52;;;;;;;12.34;100.00;98727.09;5033493;28;20045;-79
2023/10/19 04:43:33;;;;;;;31.40;22.25;;;;;;;12.27;100.00;98727.97;5028288;28;20161;-79
2023/10/19 04:46:00;;;;;;;29.52;22.42;;;;;;;12.17;100.00;98721.59;5035831;28;20419;-78
2023/10/19 04:48:31;;;;;;;28.15;20.88;;;;;;;12.24;100.00;98723.16;5033507;28;20056;-79
2023/10/19 04:50:58;;;;;;;32.60;22.05;;;;;;;12.23;100.00;98732.03;5035158;28;20098;-79
2023/10/19 04:53:26;;;;;;;30.10;22.17;;;;;;;12.29;100.00;98735.59;5035610;28;20518;-79
2023/10/19 04:55:52;;;;;;;28.73;21.75;;;;;;;12.32;100.00;98729.91;5035556;28;20132;-79
2023/10/19 04:58:19;;;;;;;28.10;21.58;;;;;;;12.25;100.00;98730.00;5031905;28;20085;-78
2023/10/19 05:00:45;;;;;;;28.33;22.13;;;;;;;12.25;100.00;98735.25;5032122;28;20049;-78
2023/10/19 05:03:18;;;;;;;28.85;21.27;;;;;;;12.35;100.00;98733.94;5030559;28;20132;-79
2023/10/19 05:05:45;;;;;;;27.83;20.63;;;;;;;12.24;100.00;98735.44;5031323;28;20050;-78
2023/10/19 05:08:11;;;;;;;34.08;22.98;;;;;;;12.38;100.00;98728.28;5034735;28;20473;-79
2023/10/19 05:10:40;;;;;;;31.98;20.77;;;;;;;12.32;100.00;98729.13;5035497;28;20081;-79
2023/10/19 05:13:07;;;;;;;25.92;19.65;;;;;;;12.43;100.00;98724.00;5033048;28;20476;-77
2023/10/19 05:15:34;;;;;;;30.75;20.33;;;;;;;12.41;100.00;98733.09;5033750;28;20060;-79
2023/10/19 05:18:02;;;;;;;27.35;20.95;;;;;;;12.48;100.00;98736.47;5034280;28;20045;-79
2023/10/19 05:20:28;;;;;;;25.35;19.70;;;;;;;12.39;100.00;98725.44;5036009;28;20049;-78
2023/10/19 05:22:55;;;;;;;28.20;19.30;;;;;;;12.43;100.00;98725.81;5036769;28;20114;-79
2023/10/19 05:25:23;;;;;;;26.08;19.35;;;;;;;12.40;100.00;98721.00;5039537;28;20105;-80
2023/10/19 05:27:51;;;;;;;23.63;18.65;;;;;;;12.50;100.00;98723.94;5039819;28;20490;-80
2023/10/19 05:30:18;;;;;;;26.35;18.30;;;;;;;12.52;100.00;98716.66;5039997;28;20136;-80
2023/10/19 05:32:46;;;;;;;25.58;19.05;;;;;;;12.59;100.00;98725.28;5039854;28;20099;-80
2023/10/19 05:35:18;;;;;;;24.08;17.83;;;;;;;12.62;100.00;98716.97;5040466;28;20064;-80
2023/10/19 05:37:45;;;;;;;21.25;17.35;;;;;;;12.65;100.00;98724.41;5041823;28;20053;-80
2023/10/19 05:40:14;;;;;;;24.67;18.15;;;;;;;12.68;100.00;98715.31;5043132;28;20117;-81
2023/10/19 05:42:41;;;;;;;23.80;16.77;;;;;;;12.65;100.00;98713.13;5035701;28;20404;-80
2023/10/19 05:45:12;;;;;;;23.85;16.73;;;;;;;12.68;100.00;98718.75;5037887;28;20141;-80
2023/10/19 05:47:39;;;;;;;22.23;16.80;;;;;;;12.54;100.00;98722.50;5037799;28;20061;-79
2023/10/19 05:50:06;;;;;;;22.88;17.20;;;;;;;12.54;100.00;98712.81;5036344;28;20140;-80
2023/10/19 05:52:33;;;;;;;19.92;15.93;;;;;;;12.45;100.00;98721.97;5036457;28;20084;-80
2023/10/19 05:55:00;;;;;;;24.05;20.42;;;;;;;12.63;100.00;98729.09;5036051;28;20132;-79
2023/10/19 05:57:26;;;;;;;21.13;17.30;;;;;;;12.67;100.00;98732.09;5033197;28;20080;-79
2023/10/19 05:59:53;;;;;;;23.10;17.08;;;;;;;12.71;100.00;98728.81;5033220;28;20077;-79
2023/10/19 06:02:22;;;;;;;20.50;15.13;;;;;;;12.68;100.00;98733.69;5033646;28;20049;-79
2023/10/19 06:04:48;;;;;;;24.23;15.15;;;;;;;12.69;100.00;98741.34;5034780;28;20049;-79
2023/10/19 06:07:15;;;;;;;21.63;15.95;;;;;;;12.77;100.00;98743.66;5034809;28;20542;-79
2023/10/19 06:09:41;;;;;;;23.17;15.23;;;;;;;12.75;100.00;98750.97;5034292;28;20129;-79
2023/10/19 06:12:09;;;;;;;22.63;18.65;;;;;;;12.77;100.00;98748.91;5034267;28;20486;-79
2023/10/19 06:14:37;;;;;;;23.70;18.63;;;;;;;12.86;100.00;98758.13;5032648;28;20061;-78
2023/10/19 06:17:04;;;;;;;23.88;19.25;;;;;;;12.86;100.00;98760.75;5043208;28;20041;-80
2023/10/19 06:19:32;;;;;;;29.77;22.15;;;;;;;12.92;100.00;98766.97;5040179;28;20049;-80
2023/10/19 06:21:59;;;;;;;22.10;14.73;;;;;;;12.91;100.00;98758.28;5051168;28;20033;-77
2023/10/19 06:24:26;;;;;;;19.63;14.27;;;;;;;12.79;100.00;98756.56;5049489;28;20049;-79
2023/10/19 06:26:53;;;;;;;20.67;14.55;;;;;;;12.78;100.00;98765.47;5042457;28;20511;-78
2023/10/19 06:29:19;;;;;;;17.75;14.40;;;;;;;12.87;100.00;98758.94;5032160;28;20088;-79
2023/10/19 06:31:46;;;;;;;22.40;16.77;;;;;;;13.00;100.00;98765.88;5035422;28;20137;-80
2023/10/19 06:34:12;;;;;;;23.23;14.65;;;;;;;13.03;100.00;98773.34;5037298;28;20178;-81
2023/10/19 06:36:40;;;;;;;22.95;14.68;;;;;;;13.09;100.00;98760.13;5037525;28;20136;-80
2023/10/19 06:39:08;;;;;;;18.80;14.30;;;;;;;13.10;100.00;98763.56;5033280;28;20046;-80
2023/10/19 06:41:35;;;;;;;18.90;14.63;;;;;;;12.99;100.00;98759.84;5036898;28;20077;-80
2023/10/19 06:44:02;;;;;;;24.83;15.85;;;;;;;13.09;100.00;98765.41;5038093;28;20059;-82
2023/10/19 06:46:28;;;;;;;22.75;17.75;;;;;;;13.21;100.00;98765.50;5038141;28;20080;-82
2023/10/19 06:48:59;;;;;;;22.35;14.35;;;;;;;13.10;100.00;98758.31;5038521;28;20555;-81
2023/10/19 06:51:27;;;;;;;23.00;14.23;;;;;;;13.22;100.00;98765.28;5038124;28;20058;-83
2023/10/19 06:53:55;;;;;;;21.63;14.27;;;;;;;13.21;100.00;98758.44;5038011;28;20136;-82
2023/10/19 06:56:22;;;;;;;19.20;14.02;;;;;;;13.32;100.00;98764.75;5032460;28;20559;-82
2023/10/19 06:58:49;;;;;;;19.10;13.98;;;;;;;13.29;100.00;98759.94;5037423;28;20128;-81
2023/10/19 07:01:16;;;;;;;22.25;15.23;;;;;;;13.42;100.00;98757.19;5035330;28;20053;-79
2023/10/19 07:03:43;;;;;;;20.30;13.95;;;;;;;13.45;100.00;98761.19;5035054;28;20053;-79
2023/10/19 07:06:13;;;;;;;28.13;21.83;;;;;;;13.53;100.00;98769.59;5035335;28;20137;-80
2023/10/19 07:08:40;;;;;;;20.58;15.48;;;;;;;13.63;100.00;98773.53;5034567;28;20049;-80
2023/10/19 07:11:09;;;;;;;19.13;13.70;;;;;;;13.56;100.00;98781.47;5034052;28;20045;-79
2023/10/19 07:13:35;;;;;;;19.50;13.50;;;;;;;13.56;100.00;98771.78;5040823;28;20053;-80
2023/10/19 07:16:03;;;;;;;20.85;14.57;;;;;;;13.45;100.00;98776.97;5037827;28;20069;-80
2023/10/19 07:18:30;;;;;;;18.40;13.57;;;;;;;13.44;100.00;98776.16;5036255;28;20049;-79
2023/10/19 07:29:18;;;;;;;;;;;;;;;;;;;;;
2023/10/19 07:41:59;;;;;;;18.50;12.80;;;;;;;13.86;100.00;98771.00;4989989;28;20057;-84
2023/10/19 07:44:34;;;;;;;16.08;12.98;;;;;;;13.83;100.00;98768.81;5041139;28;20105;-84
2023/10/19 07:47:09;;;;;;;17.67;12.77;;;;;;;13.69;100.00;98762.94;5042057;28;20082;-84
2023/10/19 07:49:38;;;;;;;16.95;12.82;;;;;;;13.83;100.00;98774.06;5034873;28;20046;-84
2023/10/19 07:52:06;;;;;;;17.48;13.25;;;;;;;13.95;100.00;98777.56;5042459;28;20081;-82
2023/10/19 07:54:33;;;;;;;17.77;12.85;;;;;;;13.91;100.00;98776.38;5045989;28;20080;-83
2023/10/19 07:57:03;;;;;;;21.80;13.65;;;;;;;14.02;100.00;98780.91;5043188;28;20042;-83
2023/10/19 07:59:31;;;;;;;17.65;13.27;;;;;;;14.13;100.00;98774.09;5035577;28;20060;-83
2023/10/19 08:01:57;;;;;;;17.02;12.90;;;;;;;14.21;100.00;98774.53;5043539;28;20113;-83
2023/10/19 08:04:25;;;;;;;18.42;12.57;;;;;;;14.23;100.00;98769.84;5043569;28;20100;-83
2023/10/19 08:06:52;;;;;;;17.88;13.30;;;;;;;14.18;100.00;98767.09;5039597;28;20049;-83
2023/10/19 08:09:22;;;;;;;17.15;12.27;;;;;;;14.28;100.00;98767.34;5039940;28;20056;-82
2023/10/19 08:11:49;;;;;;;17.58;12.82;;;;;;;14.36;100.00;98752.28;5038274;28;20060;-83
2023/10/19 08:14:17;;;;;;;16.58;12.40;;;;;;;14.34;100.00;98752.50;5044378;28;20435;-82
2023/10/19 08:16:43;;;;;;;15.93;13.20;;;;;;;14.38;100.00;98752.84;5049366;28;20115;-83
2023/10/19 08:19:12;;;;;;;19.30;13.23;;;;;;;14.42;100.00;98749.59;5045315;28;20125;-83
2023/10/19 08:21:38;;;;;;;17.70;12.25;;;;;;;14.39;100.00;98760.53;5042719;28;20515;-83
2023/10/19 08:24:06;;;;;;;20.23;12.70;;;;;;;14.58;100.00;98748.13;5038861;28;20069;-83
2023/10/19 08:26:32;;;;;;;19.88;12.10;;;;;;;14.63;100.00;98748.25;5036140;28;20085;-83
2023/10/19 08:28:59;;;;;;;18.38;12.55;;;;;;;14.78;100.00;98751.22;5044315;28;20049;-82
2023/10/19 08:31:27;;;;;;;17.23;12.02;;;;;;;15.04;100.00;98738.63;5043968;28;20057;-83
2023/10/19 08:33:54;;;;;;;17.70;12.63;;;;;;;15.12;100.00;98727.72;5045706;28;20511;-83
2023/10/19 08:36:21;;;;;;;16.10;11.38;;;;;;;15.02;100.00;98732.78;5043191;28;20053;-82
2023/10/19 08:38:53;;;;;;;15.40;12.35;;;;;;;15.26;100.00;98732.50;5040441;28;20113;-83
2023/10/19 08:41:20;;;;;;;15.63;11.35;;;;;;;15.48;100.00;98735.31;5036673;28;20049;-82
2023/10/19 08:43:48;;;;;;;21.13;11.65;;;;;;;15.93;100.00;98727.50;5042900;28;20128;-83
2023/10/19 08:46:15;;;;;;;13.70;10.27;;;;;;;16.17;100.00;98730.81;5042257;28;20507;-82
2023/10/19 08:48:43;;;;;;;13.52;10.13;;;;;;;16.43;100.00;98720.69;5038796;28;20073;-83
2023/10/19 08:51:11;;;;;;;14.95;10.45;;;;;;;16.50;100.00;98706.28;5042116;28;20495;-82
2023/10/19 08:53:40;;;;;;;20.00;9.30;;;;;;;16.52;100.00;98698.13;5040643;28;20085;-82
2023/10/19 08:56:08;;;;;;;14.80;8.95;;;;;;;16.76;100.00;98704.81;5041669;28;20049;-82
2023/10/19 08:58:35;;;;;;;10.80;8.32;;;;;;;16.76;100.00;98698.75;5042188;28;20475;-83
2023/10/19 09:01:06;;;;;;;16.48;8.48;;;;;;;16.64;100.00;98688.28;5041472;28;20484;-82
2023/10/19 09:03:33;;;;;;;10.95;6.53;;;;;;;16.80;100.00;98686.66;5035195;28;20045;-83
2023/10/19 09:06:05;;;;;;;11.60;6.53;;;;;;;16.85;100.00;98694.66;5043083;28;20113;-82
2023/10/19 09:08:39;;;;;;;9.50;6.57;;;;;;;17.00;100.00;98680.84;5045037;28;20056;-82
2023/10/19 09:11:08;;;;;;;12.82;6.45;;;;;;;16.87;100.00;98668.78;5045537;28;20511;-82
2023/10/19 09:13:44;;;;;;;11.40;6.63;;;;;;;17.10;100.00;98675.66;5038110;28;20046;-82
2023/10/19 09:16:11;;;;;;;12.23;7.32;;;;;;;17.11;100.00;98674.63;5045491;28;20049;-83
2023/10/19 09:18:38;;;;;;;14.32;6.38;;;;;;;17.10;100.00;98667.75;5043810;28;20076;-82
2023/10/19 09:21:11;;;;;;;10.90;6.05;;;;;;;16.90;100.00;98673.59;5043790;28;20076;-83
2023/10/19 09:23:40;;;;;;;9.43;5.45;;;;;;;17.00;100.00;98673.72;5036644;28;20049;-83
2023/10/19 09:26:08;;;;;;;11.20;5.82;;;;;;;16.91;100.00;98673.34;5042844;28;20056;-83
2023/10/19 09:28:42;;;;;;;10.75;5.78;;;;;;;16.92;100.00;98666.22;5044090;28;20080;-84
2023/10/19 09:31:10;;;;;;;9.75;5.90;;;;;;;16.99;100.00;98663.41;5044044;28;20042;-82
2023/10/19 09:33:37;;;;;;;9.60;5.72;;;;;;;17.11;100.00;98654.28;5044821;28;20045;-82
2023/10/19 09:36:12;;;;;;;9.25;5.00;;;;;;;17.30;100.00;98662.72;5044117;28;20435;-84
2023/10/19 09:38:41;;;;;;;10.65;5.60;;;;;;;17.50;100.00;98652.34;5036915;28;20053;-83
2023/10/19 09:41:12;;;;;;;10.05;4.85;;;;;;;17.64;100.00;98654.59;5044509;28;20041;-83
2023/10/19 09:43:43;;;;;;;13.20;4.70;;;;;;;17.71;100.00;98642.00;5044458;28;20080;-83
2023/10/19 09:46:12;;;;;;;6.95;4.57;;;;;;;17.63;100.00;98639.78;5044651;28;20077;-83
2023/10/19 09:48:42;;;;;;;8.43;4.90;;;;;;;17.78;99.35;98626.72;5044550;28;20049;-83
2023/10/19 09:51:11;;;;;;;10.23;4.57;;;;;;;17.95;98.41;98637.19;5043723;28;20049;-83
2023/10/19 09:53:40;;;;;;;6.00;4.10;;;;;;;18.03;97.53;98628.78;5044429;28;20053;-83
2023/10/19 09:56:09;;;;;;;7.88;4.10;;;;;;;17.70;96.87;98619.25;5042747;28;20076;-82
2023/10/19 09:58:43;;;;;;;10.93;5.00;;;;;;;17.56;98.12;98635.47;5044847;28;20157;-83
2023/10/19 10:01:12;;;;;;;13.90;5.05;;;;;;;17.76;98.53;98639.41;5045307;28;20492;-83
2023/10/19 10:03:51;;;;;;;12.65;4.90;;;;;;;17.76;97.41;98624.34;5043471;28;20056;-82
2023/10/19 10:06:28;;;;;;;11.48;5.40;;;;;;;17.66;98.63;98628.72;5040254;28;20057;-83
2023/10/19 10:08:56;;;;;;;11.02;5.82;;;;;;;17.70;99.55;98624.53;5044397;28;20109;-83
2023/10/19 10:11:26;;;;;;;13.63;5.20;;;;;;;17.79;99.17;98620.38;5044833;28;20045;-85
2023/10/19 10:13:54;;;;;;;10.63;4.78;;;;;;;18.07;98.58;98630.66;5044647;28;20483;-84
2023/10/19 10:16:24;;;;;;;10.48;4.25;;;;;;;18.16;96.98;98607.19;5046150;28;20044;-85
2023/10/19 10:18:59;;;;;;;10.80;4.72;;;;;;;18.43;95.49;98615.03;5043181;28;20056;-83
2023/10/19 10:22:16;;;;;;;12.38;5.57;;;;;;;18.42;96.02;98621.41;5042765;28;20048;-83
2023/10/19 10:24:57;;;;;;;9.25;4.45;;;;;;;18.97;93.80;98609.47;5035919;28;20125;-84
2023/10/19 10:27:43;;;;;;;12.20;4.25;;;;;;;19.12;91.51;98599.75;5042454;28;20103;-83
2023/10/19 10:30:34;;;;;;;8.68;4.35;;;;;;;18.84;90.99;98578.97;5034776;28;20519;-83
2023/10/19 10:37:05;;;;;;;12.73;4.65;;;;;;;18.83;90.25;98580.84;5036916;28;20376;-83
2023/10/19 10:39:44;;;;;;;9.32;5.00;;;;;;;18.73;90.72;98586.09;5044715;28;20045;-83
2023/10/19 10:42:28;;;;;;;11.05;4.43;;;;;;;18.99;91.71;98610.03;5042921;28;20058;-83
2023/10/19 10:45:10;;;;;;;9.18;4.60;;;;;;;18.59;92.62;98608.75;5042575;28;20482;-83
2023/10/19 10:47:52;;;;;;;9.65;4.47;;;;;;;18.35;93.64;98602.28;5034695;28;20053;-83
2023/10/19 10:50:48;;;;;;;9.32;4.40;;;;;;;18.45;93.96;98613.72;5041804;28;20049;-83
2023/10/19 10:53:41;;;;;;;11.20;4.60;;;;;;;18.63;94.08;98603.78;5022578;28;20411;-83
2023/10/19 10:59:42;;;;;;;12.57;4.50;;;;;;;18.46;94.01;98585.38;5039723;28;20057;-83
2023/10/19 11:02:32;;;;;;;12.45;4.45;;;;;;;18.33;94.39;98564.66;5034012;28;20049;-83
2023/10/19 11:05:11;;;;;;;10.23;3.92;;;;;;;18.40;94.57;98567.88;5042287;28;20099;-83
2023/10/19 11:08:32;;;;;;;10.90;4.47;;;;;;;18.22;94.78;98546.06;5034580;28;20053;-83
2023/10/19 11:14:24;;;;;;;11.60;4.35;;;;;;;18.23;95.25;98555.59;5050074;28;20053;-83
2023/10/19 11:17:31;;;;;;;13.02;4.82;;;;;;;18.14;95.46;98541.25;5047052;28;20068;-83
2023/10/19 11:20:32;;;;;;;9.77;4.28;;;;;;;18.28;95.26;98559.34;5043632;28;20049;-82
2023/10/19 11:23:02;;;;;;;8.40;3.83;;;;;;;18.34;95.62;98545.88;5035948;28;20046;-82
2023/10/19 11:25:30;;;;;;;11.77;4.47;;;;;;;18.37;95.46;98544.56;5029440;28;20058;-83
2023/10/19 11:27:57;;;;;;;11.20;4.35;;;;;;;18.47;95.17;98540.09;5030050;28;20057;-83
2023/10/19 11:30:33;;;;;;;11.88;3.85;;;;;;;18.30;94.93;98520.97;5032101;28;20050;-83
2023/10/19 11:33:03;;;;;;;10.25;4.10;;;;;;;18.42;94.39;98516.28;5032659;28;20056;-83
2023/10/19 11:35:33;;;;;;;11.93;3.97;;;;;;;18.46;93.60;98519.16;5026546;28;20033;-82
2023/10/19 11:38:13;;;;;;;16.02;4.00;;;;;;;18.39;93.27;98505.41;5027248;28;20144;-83
2023/10/19 11:40:45;;;;;;;10.75;4.30;;;;;;;18.37;93.75;98500.34;5026924;28;20038;-83
2023/10/19 11:43:12;;;;;;;10.95;3.90;;;;;;;18.33;93.51;98504.56;5028411;28;20053;-82
2023/10/19 11:45:42;;;;;;;6.93;4.10;;;;;;;18.39;93.52;98515.97;5031418;28;20415;-82
2023/10/19 11:48:13;;;;;;;12.52;3.63;;;;;;;18.32;93.38;98512.78;5021967;28;20112;-82
2023/10/19 11:50:51;;;;;;;9.27;3.63;;;;;;;18.51;93.76;98529.78;5028780;28;20057;-83
2023/10/19 11:53:22;;;;;;;9.80;3.63;;;;;;;18.60;93.48;98520.31;5021048;28;20050;-82
2023/10/19 11:55:51;;;;;;;6.65;3.17;;;;;;;18.65;93.35;98533.59;5029168;28;20057;-83
2023/10/19 11:58:23;;;;;;;9.98;3.45;;;;;;;18.68;93.21;98517.19;5031460;28;20053;-83
2023/10/19 12:00:57;;;;;;;14.82;3.70;;;;;;;18.68;92.64;98519.84;5030164;28;20056;-83
2023/10/19 12:03:26;;;;;;;11.88;3.60;;;;;;;18.69;92.48;98517.97;5028628;28;20053;-82
2023/10/19 12:05:58;;;;;;;12.82;3.72;;;;;;;18.51;92.96;98513.91;5023634;28;20084;-83
2023/10/19 12:08:24;;;;;;;12.07;3.57;;;;;;;18.62;93.20;98512.91;5027848;28;20116;-82
2023/10/19 12:10:56;;;;;;;7.40;3.25;;;;;;;18.53;93.84;98517.88;5026967;28;20050;-82
2023/10/19 12:13:28;;;;;;;11.07;3.67;;;;;;;18.54;94.60;98508.09;5022468;28;20092;-83
2023/10/19 12:16:04;;;;;;;10.30;3.67;;;;;;;18.36;95.43;98508.56;5036583;28;20052;-83